Flight Track Log - Related Links

Times and Time Zones

All times are in EDT time to prevent confusion due to time zone crossing. See the SWA1220 flight status page for this flight to view local times or setup timezone preferences in your user account.

Time Position Orientation Groundspeed Altitude Reporting Facility
EDT Latitude Longitude Course Direction KTS MPH feet Rate Location/Type
Sat 10:20:03 AM 39.1483 -76.6514 136° Southeast 173 199 1,400  Level Washington Center
Sat 10:21:02 AM 39.1153 -76.6108 136° Southeast 191 220 3,700 2,420 Climbing Washington Center
Sat 10:22:02 AM 39.1056 -76.5278 99° East 190 219 6,200 2,727 Climbing Washington Center
Sat 10:23:03 AM 39.1208 -76.4369 78° East 210 242 9,200 2,876 Climbing Washington Center
Sat 10:24:03 AM 39.1342 -76.3408 80° East 243 280 12,000 2,644 Climbing Washington Center
Sat 10:25:01 AM 39.1472 -76.2392 81° East 268 308 14,400 2,237 Climbing Washington Center
Sat 10:26:01 AM 39.1497 -76.1456 88° East 283 326 16,400 1,785 Climbing Washington Center
Sat 10:27:02 AM 39.1606 -76.0386 83° East 293 337 18,000 1,650 Climbing Washington Center
Sat 10:28:01 AM 39.1817 -75.9236 77° East 305 351 19,700 1,462 Climbing Washington Center
Sat 10:29:01 AM 39.2361 -75.8219 55° Northeast 327 376 20,900 1,537 Climbing Washington Center
Sat 10:30:02 AM 39.3072 -75.7311 45° Northeast 341 392 22,800 1,033 Climbing Washington Center
Sat 10:31:03 AM 39.3781 -75.6400 45° Northeast 347 399 23,000 984 Climbing Washington Center
Sat 10:32:04 AM 39.4531 -75.5458 44° Northeast 357 411 24,800 1,627 Climbing Washington Center
Sat 10:33:01 AM 39.5281 -75.4464 46° Northeast 367 422 26,200 1,454 Climbing Washington Center
Sat 10:35:18 AM 39.7136 -75.1994 46° Northeast 385 443 29,500 1,492 Climbing New York Center
Sat 10:36:18 AM 39.7908 -75.0853 49° Northeast 403 464 31,100 1,438 Climbing New York Center
Sat 10:37:19 AM 39.8678 -74.9739 48° Northeast 403 464 32,400 1,279 Climbing New York Center
Sat 10:38:20 AM 39.9467 -74.8622 47° Northeast 409 471 33,700 1,220 Climbing New York Center
Sat 10:39:17 AM 40.0294 -74.7614 43° Northeast 409 471 34,800 974 Climbing New York Center
Sat 10:40:17 AM 40.1100 -74.6600 44° Northeast 404 465 35,600 893 Climbing New York Center
Sat 10:41:18 AM 40.2194 -74.6256 14° North 391 450 36,600 694 Climbing New York Center
Sat 10:42:18 AM 40.3181 -74.6011 11° North 382 440 37,000 198 Climbing New York Center
Sat 10:43:19 AM 40.4325 -74.6072 358° North 393 452 37,000  Level New York Center
Sat 10:44:20 AM 40.5406 -74.6189 355° North 393 452 37,000  Level New York Center
Sat 10:45:17 AM 40.6506 -74.6278 356° North 393 452 37,000  Level New York Center
Sat 10:47:32 AM 40.9067 -74.5767 North 398 458 37,000  Level Boston Center
Sat 10:48:32 AM 40.9969 -74.5383 18° North 393 452 37,000  Level Boston Center
Sat 10:49:32 AM 41.1042 -74.4922 18° North 386 444 37,000  Level Boston Center
Sat 10:50:32 AM 41.2050 -74.4514 17° North 386 444 37,000  Level Boston Center
Sat 10:51:32 AM 41.3183 -74.4108 15° North 392 451 37,000  Level Boston Center
Sat 10:52:32 AM 41.4169 -74.3639 20° North 387 445 37,000  Level Boston Center
Sat 10:53:32 AM 41.5239 -74.3256 15° North 387 445 37,000  Level Boston Center
Sat 10:54:32 AM 41.6289 -74.2814 17° North 387 445 37,000  Level Boston Center
Sat 10:55:32 AM 41.7339 -74.2344 18° North 387 445 37,000 -650 Level Boston Center
Sat 10:56:32 AM 41.8469 -74.1903 16° North 381 438 35,700 -2,200 Descending Boston Center
Sat 10:57:32 AM 41.9519 -74.1458 17° North 386 444 32,600 -3,300 Descending Boston Center
Sat 10:58:32 AM 42.0611 -74.1011 17° North 391 450 29,100 -3,350 Descending Boston Center
Sat 10:59:32 AM 42.1519 -74.0167 35° Northeast 389 448 25,900 -3,050 Descending Boston Center
Sat 11:00:32 AM 42.2036 -73.8806 63° Northeast 382 440 23,000 -3,000 Descending Boston Center
Sat 11:01:32 AM 42.2533 -73.7472 63° Northeast 382 440 19,900 -2,000 Descending Boston Center
Sat 11:02:32 AM 42.3006 -73.6247 62° Northeast 382 440 19,000 -450 Descending Boston Center
Sat 11:03:32 AM 42.3411 -73.5158 63° Northeast 363 418 19,000  Level Boston Center
Sat 11:04:32 AM 42.3881 -73.3903 63° Northeast 343 395 19,000  Level Boston Center
Sat 11:05:32 AM 42.4286 -73.2894 61° Northeast 337 388 19,000  Level Boston Center
Sat 11:06:32 AM 42.4753 -73.1606 64° Northeast 342 394 19,000  Level Boston Center
Sat 11:07:32 AM 42.5175 -73.0458 63° Northeast 365 420 19,000  Level Boston Center
Sat 11:08:32 AM 42.5703 -72.9025 63° Northeast 375 432 19,000 -100 Level Boston Center
Sat 11:09:32 AM 42.6103 -72.7956 63° Northeast 363 418 18,800 -450 Descending Boston Center
Sat 11:10:32 AM 42.6544 -72.6800 63° Northeast 350 403 18,100 -850 Descending Boston Center
Sat 11:11:32 AM 42.6964 -72.5644 64° Northeast 340 391 17,100 -1,000 Descending Boston Center
Sat 11:12:32 AM 42.7381 -72.4514 63° Northeast 340 391 16,100 -1,050 Descending Boston Center
Sat 11:13:32 AM 42.7775 -72.3383 65° Northeast 334 384 15,000 -1,600 Descending Boston Center
Sat 11:14:32 AM 42.8003 -72.2136 76° East 326 375 12,900 -1,950 Descending Boston Center
Sat 11:15:32 AM 42.8083 -72.1089 84° East 309 356 11,100 -1,450 Descending Boston Center
Sat 11:16:32 AM 42.8392 -71.9956 70° East 292 336 10,000 -1,200 Descending Boston Center
Sat 11:17:32 AM 42.8514 -71.9106 79° East 260 299 8,700 -1,900 Descending Boston Center
Sat 11:18:32 AM 42.8550 -71.8000 87° East 255 293 6,200 -1,950 Descending Boston Center
Sat 11:19:32 AM 42.8567 -71.7178 88° East 255 293 4,800 -1,500 Descending Boston Center
Sat 11:20:32 AM 42.8622 -71.6158 86° East 238 274 3,200 -1,050 Descending Boston Center
Sat 11:21:32 AM 42.8681 -71.5506 83° East 218 251 2,700 -750 Descending Boston Center
Sat 11:22:32 AM 42.8903 -71.4964 61° Northeast 159 183 1,700 -1,050 Descending Boston Center
Sat 11:23:32 AM 42.9153 -71.4650 43° Northeast 134 154 600 -650 Descending Boston Center
Sat 11:24:32 AM 42.9419 -71.4275 46° Northeast 134 154 400 9,200 Descending Boston Center
Sat 11:25:32 AM 42.9667 -71.3903 48° Northeast 134 154 19,000 9,300 Climbing Boston Center
Sat 11:26:32 AM 42.9933 -71.3558 43° Northeast 134 154 19,000  Level Boston Center
Sat 11:27:32 AM 43.0181 -71.3183 48° Northeast 134 154 19,000  Level Boston Center
Sat 11:28:32 AM 43.0242 -71.3125 35° Northeast 134 154 19,000  Level Boston Center
Sat 11:30:00 AM 42.9328 -71.4358 316° Northwest  Level Estimated
Sat 11:37:00 AM 42.9328 -71.4358 316° Northwest  Level Estimated
Sat 11:38:00 AM 42.9328 -71.4358 316° Northwest  Level Estimated
Sat 11:39:00 AM 42.9328 -71.4358 316° Northwest  Level Estimated
Sat 11:40:00 AM 42.9328 -71.4358 316° Northwest  Level Estimated
Sat 11:41:00 AM 42.9328 -71.4358 316° Northwest  Level Estimated
Sat 11:42:00 AM 42.9328 -71.4358 316° Northwest  Level Estimated

Login

Don't have an account? Register now (free) for customized features, flight alerts, and more!